KIR weather

Kerry Airport
Killarney, County Kerry, Ireland

Public forecast

Using degrees Celsius for public forecast. Weather courtesy of forecast.io.

METAR (pilot weather report)

Retrieved 2019/06/27 12:30 UTC (0 seconds ago):

EIKY 271230Z 11013KT CAVOK 24/17 Q1023

TAF (pilot weather forecast)

Closest forecast is Shannon Airport, 38.2 nm (70.8 km) NE. Retrieved 2019/06/27 12:11 UTC (0 seconds ago):

TAF EINN 271100Z 2712/2812 07012KT CAVOK PROB40 TEMPO 2713/2718 09015G25KT BECMG 2800/2803 11013KT BECMG 2808/2810 16012KT